createdAt,value
2019-05-22T00:00:31.735Z,45.00
2019-05-22T00:03:02.238Z,46.37
2019-05-22T00:05:34.990Z,43.02
2019-05-22T00:08:05.339Z,42.30
2019-05-22T00:10:34.844Z,43.48
2019-05-22T00:13:06.163Z,44.10
2019-05-22T00:15:38.609Z,42.55
2019-05-22T00:18:07.856Z,44.05
2019-05-22T00:20:37.575Z,43.23
2019-05-22T00:23:11.355Z,43.08
2019-05-22T00:25:41.080Z,45.73
2019-05-22T00:28:10.622Z,46.65
2019-05-22T00:30:41.362Z,48.30
2019-05-22T00:33:11.458Z,50.45
2019-05-22T00:35:42.394Z,52.65
2019-05-22T00:38:12.007Z,52.65
2019-05-22T00:40:45.076Z,51.05
2019-05-22T00:43:17.265Z,51.02
2019-05-22T00:45:49.376Z,47.85
2019-05-22T00:48:21.633Z,47.33
2019-05-22T00:50:57.595Z,46.48
2019-05-22T00:53:44.803Z,43.13
2019-05-22T00:56:16.994Z,43.40
2019-05-22T00:59:07.705Z,41.55
2019-05-22T01:01:39.912Z,42.15
2019-05-22T01:04:10.383Z,40.48
2019-05-22T01:06:39.802Z,40.67
2019-05-22T01:09:10.783Z,42.78
2019-05-22T01:11:41.209Z,43.92
2019-05-22T01:14:10.140Z,42.53
2019-05-22T01:16:40.202Z,42.62
2019-05-22T01:19:10.956Z,44.50
2019-05-22T01:21:40.403Z,44.70
2019-05-22T01:24:11.087Z,46.65
2019-05-22T01:26:41.941Z,44.45
2019-05-22T01:29:11.674Z,44.85
2019-05-22T01:31:42.198Z,43.15
2019-05-22T01:34:12.888Z,45.25
2019-05-22T01:36:49.722Z,44.48
2019-05-22T01:39:25.875Z,43.55
2019-05-22T01:41:57.235Z,44.03
2019-05-22T01:44:27.703Z,43.40
2019-05-22T01:46:58.433Z,43.38
2019-05-22T01:49:28.238Z,40.60
2019-05-22T01:51:57.898Z,40.78
2019-05-22T01:54:27.875Z,42.05
2019-05-22T01:57:05.428Z,42.93
2019-05-22T01:59:52.812Z,43.68
2019-05-22T02:02:24.855Z,41.77
2019-05-22T02:04:54.557Z,42.95
2019-05-22T02:07:24.483Z,43.60
2019-05-22T02:09:55.196Z,42.90
2019-05-22T02:12:36.512Z,40.75
2019-05-22T02:15:07.595Z,40.67
2019-05-22T02:17:37.345Z,39.65
2019-05-22T02:20:08.887Z,37.53
2019-05-22T02:22:38.874Z,35.48
2019-05-22T02:25:08.450Z,35.30
2019-05-22T02:27:38.882Z,38.45
2019-05-22T02:30:09.540Z,37.65
2019-05-22T02:32:39.106Z,36.58
2019-05-22T02:35:09.435Z,36.13
2019-05-22T02:37:39.383Z,36.45
2019-05-22T02:40:20.267Z,36.58
2019-05-22T02:42:50.939Z,37.00
2019-05-22T02:45:21.914Z,36.00
2019-05-22T02:47:50.906Z,36.63
2019-05-22T02:50:20.270Z,36.70
2019-05-22T02:52:50.771Z,35.60
2019-05-22T02:55:20.027Z,35.90
2019-05-22T02:57:50.029Z,35.98
2019-05-22T03:00:19.881Z,34.15
2019-05-22T03:02:57.554Z,34.88
2019-05-22T03:05:26.902Z,34.65
2019-05-22T03:07:55.898Z,35.50
2019-05-22T03:10:25.477Z,34.83
2019-05-22T03:12:54.455Z,35.75
2019-05-22T03:15:24.618Z,35.03
2019-05-22T03:17:56.466Z,34.80
2019-05-22T03:20:26.568Z,33.75
2019-05-22T03:22:58.958Z,35.20
2019-05-22T03:25:30.182Z,34.75
2019-05-22T03:27:59.939Z,33.75
2019-05-22T03:30:46.555Z,31.97
2019-05-22T03:33:11.781Z,30.55
2019-05-22T03:35:47.470Z,32.48
2019-05-22T03:38:19.149Z,31.07
2019-05-22T03:40:51.090Z,30.92
2019-05-22T03:43:28.273Z,31.05
2019-05-22T03:45:59.194Z,30.65
2019-05-22T03:48:30.974Z,30.60
2019-05-22T03:51:08.874Z,31.40
2019-05-22T03:53:38.417Z,32.35
2019-05-22T03:56:07.275Z,32.30
2019-05-22T03:58:36.357Z,31.23
2019-05-22T04:01:06.726Z,31.57
2019-05-22T04:03:36.130Z,33.92
2019-05-22T04:06:06.520Z,33.28
2019-05-22T04:08:35.486Z,35.90
2019-05-22T04:11:05.665Z,30.25
2019-05-22T04:13:36.147Z,30.75
2019-05-22T04:16:06.791Z,31.05
2019-05-22T04:18:36.147Z,32.80
2019-05-22T04:21:05.382Z,31.20
2019-05-22T04:23:34.535Z,31.90
2019-05-22T04:26:05.292Z,31.23
2019-05-22T04:28:34.932Z,32.00
2019-05-22T04:31:14.791Z,32.60
2019-05-22T04:33:44.025Z,31.90
2019-05-22T04:36:13.879Z,31.50
2019-05-22T04:38:43.077Z,30.48
2019-05-22T04:41:11.851Z,33.45
2019-05-22T04:43:41.138Z,32.05
2019-05-22T04:46:11.449Z,30.90
2019-05-22T04:48:44.951Z,32.70
2019-05-22T04:51:26.611Z,32.55
2019-05-22T04:53:57.562Z,30.10
2019-05-22T04:56:27.731Z,29.50
2019-05-22T04:58:58.811Z,28.80
2019-05-22T05:01:28.070Z,29.92
2019-05-22T05:03:57.577Z,29.32
2019-05-22T05:06:26.673Z,27.25
2019-05-22T05:08:56.631Z,28.35
2019-05-22T05:11:25.829Z,28.92
2019-05-22T05:13:55.182Z,27.93
2019-05-22T05:16:24.099Z,27.75
2019-05-22T05:19:12.969Z,27.52
2019-05-22T05:21:41.770Z,27.65
2019-05-22T05:24:11.417Z,28.27
2019-05-22T05:26:40.410Z,26.95
2019-05-22T05:29:12.508Z,28.92
2019-05-22T05:31:42.559Z,29.82
2019-05-22T05:34:23.740Z,27.07
2019-05-22T05:36:53.333Z,27.50
2019-05-22T05:39:37.935Z,31.68
2019-05-22T05:42:06.809Z,30.27
2019-05-22T05:44:36.275Z,31.10
2019-05-22T05:47:06.947Z,28.87
2019-05-22T05:49:35.805Z,30.57
2019-05-22T05:52:06.383Z,33.15
2019-05-22T05:54:35.691Z,31.17
2019-05-22T05:57:36.952Z,32.90
2019-05-22T06:00:12.148Z,30.62
2019-05-22T06:02:55.520Z,32.65
2019-05-22T06:05:12.348Z,34.15
2019-05-22T06:07:41.430Z,35.33
2019-05-22T06:10:29.580Z,36.35
2019-05-22T06:12:59.210Z,35.25
2019-05-22T06:15:47.965Z,34.15
2019-05-22T06:18:31.984Z,34.33
2019-05-22T06:21:04.228Z,34.13
2019-05-22T06:23:42.543Z,34.35
2019-05-22T06:26:14.415Z,34.38
2019-05-22T06:28:44.211Z,32.98
2019-05-22T06:31:24.500Z,31.70
2019-05-22T06:33:53.983Z,34.50
2019-05-22T06:36:23.254Z,33.70
2019-05-22T06:38:59.621Z,31.48
2019-05-22T06:41:32.542Z,31.50
2019-05-22T06:44:23.732Z,32.10
2019-05-22T06:46:52.533Z,31.23
2019-05-22T06:49:36.820Z,32.45
2019-05-22T06:52:09.264Z,33.75
2019-05-22T06:54:38.951Z,32.88
2019-05-22T06:57:10.671Z,32.25
2019-05-22T06:59:39.961Z,30.68
2019-05-22T07:02:10.315Z,30.97
2019-05-22T07:04:39.909Z,31.07
2019-05-22T07:07:11.665Z,31.55
2019-05-22T07:09:41.320Z,29.37
2019-05-22T07:12:10.987Z,30.10
2019-05-22T07:14:45.674Z,30.65
2019-05-22T07:17:17.016Z,30.68
2019-05-22T07:19:47.266Z,30.05
2019-05-22T07:22:16.525Z,30.20
2019-05-22T07:24:45.927Z,30.97
2019-05-22T07:27:26.685Z,28.55
2019-05-22T07:29:56.475Z,30.17
2019-05-22T07:32:25.281Z,31.90
2019-05-22T07:34:54.114Z,29.05
2019-05-22T07:37:24.068Z,27.50
2019-05-22T07:39:53.701Z,28.50
2019-05-22T07:42:22.957Z,26.87
2019-05-22T07:44:51.801Z,28.47
2019-05-22T07:47:24.308Z,26.95
2019-05-22T07:49:53.237Z,27.10
2019-05-22T07:52:23.083Z,27.90
2019-05-22T07:54:54.317Z,25.92
2019-05-22T07:57:24.789Z,26.50
2019-05-22T07:59:53.606Z,24.72
2019-05-22T08:02:25.236Z,25.57
2019-05-22T08:04:54.609Z,25.48
2019-05-22T08:07:25.194Z,24.87
2019-05-22T08:09:54.119Z,25.10
2019-05-22T08:12:24.839Z,26.50
2019-05-22T08:14:55.020Z,24.45
2019-05-22T08:17:24.275Z,23.35
2019-05-22T08:19:53.146Z,23.62
2019-05-22T08:22:22.357Z,21.82
2019-05-22T08:24:51.542Z,20.70
2019-05-22T08:27:20.646Z,22.98
2019-05-22T08:29:50.099Z,22.10
2019-05-22T08:32:20.026Z,22.60
2019-05-22T08:34:49.195Z,20.95
2019-05-22T08:37:20.195Z,21.00
2019-05-22T08:39:49.754Z,20.00
2019-05-22T08:42:19.708Z,19.55
2019-05-22T08:44:48.835Z,19.92
2019-05-22T08:47:18.609Z,20.02
2019-05-22T08:49:48.146Z,19.75
2019-05-22T08:52:23.777Z,17.60
2019-05-22T08:54:51.717Z,16.80
2019-05-22T08:57:21.187Z,18.35
2019-05-22T08:59:49.981Z,19.80
2019-05-22T09:02:20.450Z,17.73
2019-05-22T09:04:49.385Z,18.27
2019-05-22T09:07:19.412Z,17.45
2019-05-22T09:09:48.488Z,17.77
2019-05-22T09:12:17.333Z,17.82
2019-05-22T09:14:46.234Z,20.30
2019-05-22T09:17:15.387Z,20.95
2019-05-22T09:19:45.029Z,20.02
2019-05-22T09:22:14.201Z,21.17
2019-05-22T09:24:43.369Z,18.62
2019-05-22T09:27:12.620Z,17.70
2019-05-22T09:29:41.504Z,18.37
2019-05-22T09:32:10.411Z,16.02
2019-05-22T09:34:39.698Z,13.45
2019-05-22T09:37:09.042Z,14.98
2019-05-22T09:39:37.939Z,17.05
2019-05-22T09:42:06.822Z,15.18
2019-05-22T09:44:35.826Z,14.73
2019-05-22T09:47:05.390Z,19.07
2019-05-22T09:49:34.568Z,18.32
2019-05-22T09:52:05.405Z,19.90
2019-05-22T09:54:35.523Z,21.48
2019-05-22T09:57:05.319Z,18.48
2019-05-22T09:59:34.254Z,19.32
2019-05-22T10:02:05.589Z,17.12
2019-05-22T10:04:34.789Z,15.72
2019-05-22T10:07:03.645Z,13.03
2019-05-22T10:09:32.541Z,16.70
2019-05-22T10:12:02.980Z,12.70
2019-05-22T10:14:32.049Z,11.85
2019-05-22T10:17:01.293Z,13.50
2019-05-22T10:19:30.736Z,13.98
2019-05-22T10:21:59.591Z,16.62
2019-05-22T10:24:28.709Z,11.83
2019-05-22T10:26:57.759Z,13.83
2019-05-22T10:29:27.387Z,15.20
2019-05-22T10:31:56.327Z,17.27
2019-05-22T10:34:25.892Z,17.75
2019-05-22T10:36:54.808Z,14.55
2019-05-22T10:39:24.912Z,12.07
2019-05-22T10:41:53.891Z,13.05
2019-05-22T10:44:24.304Z,11.33
2019-05-22T10:46:53.143Z,11.65
2019-05-22T10:49:22.508Z,10.25
2019-05-22T10:51:51.613Z,10.20
2019-05-22T10:54:20.559Z,10.90
2019-05-22T10:56:49.336Z,10.20
2019-05-22T10:59:18.149Z,11.35
2019-05-22T11:01:47.182Z,11.93
2019-05-22T11:04:19.545Z,12.30
2019-05-22T11:06:49.021Z,10.32
2019-05-22T11:09:18.169Z,13.35
2019-05-22T11:11:46.934Z,11.45
2019-05-22T11:14:16.202Z,9.73
2019-05-22T11:16:49.930Z,12.73
2019-05-22T11:19:18.907Z,11.12
2019-05-22T11:21:47.789Z,11.65
2019-05-22T11:24:16.704Z,9.65
2019-05-22T11:26:47.073Z,9.63
2019-05-22T11:29:16.815Z,10.72
2019-05-22T11:31:45.717Z,12.05
2019-05-22T11:34:14.788Z,10.65
2019-05-22T11:36:43.713Z,11.22
2019-05-22T11:39:14.815Z,9.68
2019-05-22T11:41:43.906Z,11.20
2019-05-22T11:44:13.254Z,11.60
2019-05-22T11:46:42.230Z,8.50
2019-05-22T11:49:11.396Z,9.13
2019-05-22T11:51:40.209Z,7.90
2019-05-22T11:54:10.051Z,7.72
2019-05-22T11:56:39.132Z,8.75
2019-05-22T11:59:08.004Z,7.72
2019-05-22T12:01:36.827Z,6.80
2019-05-22T12:04:09.261Z,7.10
2019-05-22T12:06:38.711Z,8.80
2019-05-22T12:09:10.093Z,8.25
2019-05-22T12:11:43.014Z,5.97
2019-05-22T12:14:10.536Z,6.37
2019-05-22T12:16:41.226Z,5.83
2019-05-22T12:19:10.558Z,5.85
2019-05-22T12:21:39.937Z,10.23
2019-05-22T12:24:26.000Z,5.75
2019-05-22T12:26:40.193Z,5.70
2019-05-22T12:29:09.156Z,5.37
2019-05-22T12:31:38.705Z,5.55
2019-05-22T12:34:07.977Z,5.20
2019-05-22T12:36:36.857Z,5.60
2019-05-22T12:39:10.740Z,5.40
2019-05-22T12:41:40.983Z,7.03
2019-05-22T12:44:11.256Z,5.37
2019-05-22T12:46:40.825Z,6.50
2019-05-22T12:49:12.345Z,7.78
2019-05-22T12:51:41.576Z,7.55
2019-05-22T12:54:10.439Z,5.62
2019-05-22T12:56:39.284Z,6.53
2019-05-22T12:59:08.675Z,7.53
2019-05-22T13:01:38.825Z,8.23
2019-05-22T13:04:09.102Z,8.18
2019-05-22T13:06:39.394Z,8.95
2019-05-22T13:09:10.847Z,6.70
2019-05-22T13:11:40.497Z,7.40
2019-05-22T13:14:09.396Z,7.45
2019-05-22T13:16:39.153Z,8.98
2019-05-22T13:19:08.525Z,7.42
2019-05-22T13:21:38.151Z,8.70
2019-05-22T13:24:09.983Z,8.33
2019-05-22T13:26:39.612Z,9.93
2019-05-22T13:29:08.910Z,6.90
2019-05-22T13:31:38.438Z,9.58
2019-05-22T13:34:07.372Z,10.63
2019-05-22T13:36:36.327Z,11.00
2019-05-22T13:39:08.550Z,8.13
2019-05-22T13:41:37.815Z,9.83
2019-05-22T13:44:06.604Z,8.58
2019-05-22T13:46:36.178Z,8.03
2019-05-22T13:49:05.539Z,9.60
2019-05-22T13:51:34.511Z,9.78
2019-05-22T13:54:04.240Z,8.10
2019-05-22T13:56:33.856Z,9.00
2019-05-22T13:59:03.343Z,8.00
2019-05-22T14:01:32.216Z,7.03
2019-05-22T14:04:01.122Z,6.90
2019-05-22T14:06:29.953Z,6.17
2019-05-22T14:09:00.679Z,5.67
2019-05-22T14:11:29.551Z,5.87
2019-05-22T14:13:59.003Z,6.35
2019-05-22T14:16:28.003Z,4.95
2019-05-22T14:18:56.853Z,6.85
2019-05-22T14:21:25.829Z,4.80
2019-05-22T14:23:54.681Z,4.15
2019-05-22T14:26:23.399Z,3.75
2019-05-22T14:28:52.491Z,3.45
2019-05-22T14:31:21.360Z,3.10
2019-05-22T14:33:50.632Z,5.30
2019-05-22T14:36:20.754Z,3.12
2019-05-22T14:38:49.654Z,2.52
2019-05-22T14:41:18.407Z,3.75
2019-05-22T14:43:47.380Z,3.80
2019-05-22T14:46:16.134Z,3.00
2019-05-22T14:48:45.026Z,3.37
2019-05-22T14:51:14.782Z,3.15
2019-05-22T14:53:44.209Z,2.90
2019-05-22T14:56:13.372Z,3.08
2019-05-22T14:58:43.808Z,3.83
2019-05-22T15:01:13.003Z,3.80
2019-05-22T15:03:42.366Z,3.83
2019-05-22T15:06:11.553Z,3.80
2019-05-22T15:08:40.544Z,5.28
2019-05-22T15:11:10.364Z,2.92
2019-05-22T15:13:39.939Z,3.50
2019-05-22T15:16:08.819Z,2.83
2019-05-22T15:18:37.689Z,3.15
2019-05-22T15:21:07.852Z,2.65
2019-05-22T15:23:37.383Z,3.72
2019-05-22T15:26:06.278Z,4.30
2019-05-22T15:28:35.550Z,6.05
2019-05-22T15:31:05.017Z,4.22
2019-05-22T15:33:35.048Z,2.90
2019-05-22T15:36:06.861Z,2.80
2019-05-22T15:38:38.871Z,3.75
2019-05-22T15:41:09.695Z,2.95
2019-05-22T15:43:41.105Z,2.55
2019-05-22T15:46:12.523Z,2.17
2019-05-22T15:48:43.107Z,2.58
2019-05-22T15:51:16.746Z,2.05
2019-05-22T15:53:47.110Z,1.90
2019-05-22T15:56:15.972Z,2.00
2019-05-22T15:58:49.028Z,2.08
2019-05-22T16:01:21.921Z,2.90
2019-05-22T16:03:53.611Z,2.85
2019-05-22T16:06:24.349Z,6.97
2019-05-22T16:08:55.960Z,2.80
2019-05-22T16:11:26.589Z,1.85
2019-05-22T16:13:58.153Z,3.08
2019-05-22T16:16:28.682Z,2.92
2019-05-22T16:19:00.792Z,2.40
2019-05-22T16:21:31.236Z,2.77
2019-05-22T16:24:00.536Z,2.62
2019-05-22T16:26:30.040Z,2.65
2019-05-22T16:29:00.965Z,5.30
2019-05-22T16:31:32.244Z,3.10
2019-05-22T16:34:01.316Z,2.40
2019-05-22T16:36:31.107Z,3.87
2019-05-22T16:39:00.732Z,2.20
2019-05-22T16:41:30.213Z,2.20
2019-05-22T16:43:59.636Z,2.70
2019-05-22T16:46:29.364Z,2.85
2019-05-22T16:48:58.902Z,1.42
2019-05-22T16:51:29.019Z,2.47
2019-05-22T16:54:04.673Z,3.22
2019-05-22T16:56:35.450Z,2.30
2019-05-22T16:59:06.033Z,1.25
2019-05-22T17:01:56.282Z,2.92
2019-05-22T17:04:07.693Z,1.60
2019-05-22T17:06:37.544Z,3.37
2019-05-22T17:09:09.710Z,5.05
2019-05-22T17:11:39.480Z,5.10
2019-05-22T17:14:11.417Z,3.00
2019-05-22T17:16:41.483Z,2.80
2019-05-22T17:19:25.677Z,2.90
2019-05-22T17:21:42.248Z,2.50
2019-05-22T17:24:13.183Z,2.90
2019-05-22T17:26:42.506Z,2.67
2019-05-22T17:29:13.130Z,3.10
2019-05-22T17:31:43.888Z,3.08
2019-05-22T17:34:31.987Z,2.17
2019-05-22T17:37:02.470Z,2.42
2019-05-22T17:39:34.723Z,2.55
2019-05-22T17:42:04.417Z,3.08
2019-05-22T17:44:36.456Z,3.35
2019-05-22T17:47:06.849Z,4.78
2019-05-22T17:49:35.904Z,3.25
2019-05-22T17:52:05.644Z,2.47
2019-05-22T17:54:34.515Z,10.03
2019-05-22T17:57:06.748Z,5.58
2019-05-22T17:59:35.915Z,3.35
2019-05-22T18:02:06.365Z,2.50
2019-05-22T18:04:35.256Z,2.05
2019-05-22T18:07:05.792Z,1.90
2019-05-22T18:09:35.324Z,2.75
2019-05-22T18:12:05.723Z,3.35
2019-05-22T18:14:36.204Z,4.20
2019-05-22T18:17:05.951Z,3.42
2019-05-22T18:19:36.031Z,2.58
2019-05-22T18:22:06.480Z,3.62
2019-05-22T18:24:35.333Z,2.87
2019-05-22T18:27:04.455Z,2.80
2019-05-22T18:29:33.535Z,2.80
2019-05-22T18:32:02.647Z,2.05
2019-05-22T18:34:34.672Z,2.33
2019-05-22T18:37:03.547Z,2.72
2019-05-22T18:39:33.285Z,2.40
2019-05-22T18:42:02.192Z,2.67
2019-05-22T18:44:30.979Z,3.27
2019-05-22T18:47:00.085Z,3.75
2019-05-22T18:49:29.006Z,3.95
2019-05-22T18:51:57.745Z,2.62
2019-05-22T18:54:26.620Z,2.52
2019-05-22T18:56:55.527Z,3.67
2019-05-22T18:59:24.412Z,2.40
2019-05-22T19:01:53.547Z,2.25
2019-05-22T19:04:22.540Z,6.85
2019-05-22T19:06:51.586Z,4.62
2019-05-22T19:09:20.779Z,4.37
2019-05-22T19:11:49.645Z,6.05
2019-05-22T19:14:19.034Z,5.97
2019-05-22T19:16:47.966Z,7.45
2019-05-22T19:19:20.117Z,5.72
2019-05-22T19:21:49.391Z,3.20
2019-05-22T19:24:18.548Z,6.58
2019-05-22T19:26:47.871Z,12.45
2019-05-22T19:29:16.774Z,8.50
2019-05-22T19:31:45.560Z,4.30
2019-05-22T19:34:14.403Z,3.70
2019-05-22T19:36:43.345Z,5.33
2019-05-22T19:39:22.572Z,22.70
2019-05-22T19:42:01.933Z,12.45
2019-05-22T19:44:22.715Z,15.18
2019-05-22T19:46:51.960Z,6.08
2019-05-22T19:49:20.881Z,3.40
2019-05-22T19:51:51.375Z,6.33
2019-05-22T19:54:20.234Z,3.50
2019-05-22T19:56:49.178Z,3.35
2019-05-22T19:59:19.056Z,2.00
2019-05-22T20:01:48.033Z,4.47
2019-05-22T20:04:16.960Z,4.97
2019-05-22T20:06:45.786Z,4.60
2019-05-22T20:09:16.296Z,5.42
2019-05-22T20:11:45.703Z,3.17
2019-05-22T20:14:14.970Z,2.67
2019-05-22T20:16:46.634Z,2.90
2019-05-22T20:19:15.514Z,3.12
2019-05-22T20:21:44.901Z,5.15
2019-05-22T20:24:14.161Z,6.37
2019-05-22T20:26:43.181Z,3.60
2019-05-22T20:29:14.559Z,2.60
2019-05-22T20:31:43.429Z,2.98
2019-05-22T20:34:14.196Z,2.45
2019-05-22T20:36:43.272Z,3.10
2019-05-22T20:39:13.825Z,2.98
2019-05-22T20:41:43.076Z,3.02
2019-05-22T20:44:13.946Z,2.90
2019-05-22T20:46:44.158Z,2.37
2019-05-22T20:49:14.391Z,3.20
2019-05-22T20:51:44.059Z,2.90
2019-05-22T20:54:13.035Z,2.92
2019-05-22T20:56:44.567Z,2.87
2019-05-22T20:59:14.213Z,3.12
2019-05-22T21:01:42.978Z,2.80
2019-05-22T21:04:13.855Z,3.15
2019-05-22T21:06:48.634Z,3.37
2019-05-22T21:09:20.645Z,3.20
2019-05-22T21:11:53.655Z,3.37
2019-05-22T21:14:22.956Z,2.90
2019-05-22T21:16:53.589Z,2.72
2019-05-22T21:19:23.847Z,2.65
2019-05-22T21:21:58.072Z,3.00
2019-05-22T21:24:27.944Z,2.90
2019-05-22T21:26:57.274Z,3.00
2019-05-22T21:29:27.758Z,2.80
2019-05-22T21:31:56.590Z,3.00
2019-05-22T21:34:26.469Z,3.05
2019-05-22T21:37:05.936Z,2.80
2019-05-22T21:39:35.413Z,2.95
2019-05-22T21:42:04.987Z,3.20
2019-05-22T21:44:34.695Z,2.75
2019-05-22T21:47:05.365Z,3.70
2019-05-22T21:49:38.316Z,3.00
2019-05-22T21:52:06.905Z,3.22
2019-05-22T21:54:35.736Z,3.20
2019-05-22T21:57:05.518Z,3.00
2019-05-22T21:59:34.519Z,3.47
2019-05-22T22:02:05.246Z,3.27
2019-05-22T22:04:35.129Z,3.30
2019-05-22T22:07:05.305Z,4.05
2019-05-22T22:09:34.113Z,3.37
2019-05-22T22:12:02.961Z,3.15
2019-05-22T22:14:32.432Z,4.00
2019-05-22T22:17:02.606Z,4.67
2019-05-22T22:19:32.406Z,3.33
2019-05-22T22:22:02.781Z,3.62
2019-05-22T22:24:32.273Z,3.50
2019-05-22T22:27:01.370Z,3.15
2019-05-22T22:29:30.218Z,3.10
2019-05-22T22:31:59.239Z,3.22
2019-05-22T22:34:34.232Z,3.35
2019-05-22T22:37:04.705Z,3.62
2019-05-22T22:39:34.794Z,3.35
2019-05-22T22:42:05.775Z,3.27
2019-05-22T22:44:37.077Z,4.05
2019-05-22T22:47:11.247Z,3.37
2019-05-22T22:49:40.542Z,3.40
2019-05-22T22:52:12.284Z,3.60
2019-05-22T22:54:42.144Z,3.55
2019-05-22T22:57:11.415Z,3.67
2019-05-22T22:59:40.415Z,3.80
2019-05-22T23:02:12.774Z,3.33
2019-05-22T23:04:43.002Z,2.80
2019-05-22T23:07:12.004Z,6.28
2019-05-22T23:09:43.044Z,3.50
2019-05-22T23:12:12.822Z,3.25
2019-05-22T23:14:44.745Z,3.42
2019-05-22T23:17:13.739Z,5.53
2019-05-22T23:19:43.218Z,3.58
2019-05-22T23:22:12.437Z,3.10
2019-05-22T23:24:43.738Z,3.02
2019-05-22T23:27:13.773Z,3.60
2019-05-22T23:29:43.031Z,3.60
2019-05-22T23:32:12.559Z,3.22
2019-05-22T23:34:41.731Z,3.05
2019-05-22T23:37:13.277Z,2.45
2019-05-22T23:39:42.456Z,2.47
2019-05-22T23:42:14.354Z,2.52
2019-05-22T23:44:44.304Z,2.27
2019-05-22T23:47:14.244Z,2.30
2019-05-22T23:49:43.757Z,2.40
2019-05-22T23:52:14.156Z,3.20
2019-05-22T23:54:44.730Z,3.05
2019-05-22T23:57:15.223Z,3.10
2019-05-22T23:59:46.376Z,3.10
